sensor_id;sensor_type;location;lat;lon;timestamp;P1;durP1;ratioP1;P2;durP2;ratioP2
9052;SDS011;4561;47.450;7.516;2022-09-06T00:01:54;3.50;;;2.30;;
9052;SDS011;4561;47.450;7.516;2022-09-06T00:05:14;6.33;;;2.73;;
9052;SDS011;4561;47.450;7.516;2022-09-06T00:08:35;5.43;;;2.70;;
9052;SDS011;4561;47.450;7.516;2022-09-06T00:11:55;5.87;;;2.63;;
9052;SDS011;4561;47.450;7.516;2022-09-06T00:15:16;3.93;;;2.27;;
9052;SDS011;4561;47.450;7.516;2022-09-06T00:18:36;7.40;;;3.10;;
9052;SDS011;4561;47.450;7.516;2022-09-06T00:21:57;6.47;;;2.63;;
9052;SDS011;4561;47.450;7.516;2022-09-06T00:25:17;7.93;;;2.60;;
9052;SDS011;4561;47.450;7.516;2022-09-06T00:28:38;3.20;;;2.90;;
9052;SDS011;4561;47.450;7.516;2022-09-06T00:31:58;4.60;;;2.67;;
9052;SDS011;4561;47.450;7.516;2022-09-06T00:35:21;6.80;;;2.90;;
9052;SDS011;4561;47.450;7.516;2022-09-06T00:38:44;6.67;;;2.60;;
9052;SDS011;4561;47.450;7.516;2022-09-06T00:42:10;4.73;;;2.80;;
9052;SDS011;4561;47.450;7.516;2022-09-06T00:45:32;4.20;;;2.47;;
9052;SDS011;4561;47.450;7.516;2022-09-06T00:48:58;4.60;;;2.70;;
9052;SDS011;4561;47.450;7.516;2022-09-06T00:52:23;5.27;;;3.10;;
9052;SDS011;4561;47.450;7.516;2022-09-06T00:55:47;5.40;;;2.83;;
9052;SDS011;4561;47.450;7.516;2022-09-06T00:59:08;6.47;;;2.93;;
9052;SDS011;4561;47.450;7.516;2022-09-06T01:02:28;7.63;;;2.87;;
9052;SDS011;4561;47.450;7.516;2022-09-06T01:09:27;5.33;;;2.63;;
9052;SDS011;4561;47.450;7.516;2022-09-06T01:20:30;4.33;;;2.57;;
9052;SDS011;4561;47.450;7.516;2022-09-06T01:31:41;4.90;;;2.83;;
9052;SDS011;4561;47.450;7.516;2022-09-06T01:38:55;5.77;;;3.03;;
9052;SDS011;4561;47.450;7.516;2022-09-06T01:42:19;7.60;;;2.90;;
9052;SDS011;4561;47.450;7.516;2022-09-06T01:56:51;9.27;;;3.33;;
9052;SDS011;4561;47.450;7.516;2022-09-06T02:00:18;10.47;;;2.50;;
9052;SDS011;4561;47.450;7.516;2022-09-06T02:03:46;5.33;;;3.00;;
9052;SDS011;4561;47.450;7.516;2022-09-06T02:07:23;7.73;;;2.67;;
9052;SDS011;4561;47.450;7.516;2022-09-06T02:10:46;5.57;;;2.60;;
9052;SDS011;4561;47.450;7.516;2022-09-06T02:14:12;8.30;;;2.83;;
9052;SDS011;4561;47.450;7.516;2022-09-06T02:17:37;5.47;;;2.77;;
9052;SDS011;4561;47.450;7.516;2022-09-06T02:20:59;5.50;;;2.90;;
9052;SDS011;4561;47.450;7.516;2022-09-06T02:24:22;6.80;;;2.90;;
9052;SDS011;4561;47.450;7.516;2022-09-06T02:27:45;7.70;;;2.90;;
9052;SDS011;4561;47.450;7.516;2022-09-06T02:31:25;6.20;;;3.00;;
9052;SDS011;4561;47.450;7.516;2022-09-06T02:34:49;6.43;;;3.07;;
9052;SDS011;4561;47.450;7.516;2022-09-06T02:38:11;4.70;;;2.57;;
9052;SDS011;4561;47.450;7.516;2022-09-06T02:41:32;5.97;;;3.23;;
9052;SDS011;4561;47.450;7.516;2022-09-06T02:44:53;4.93;;;2.70;;
9052;SDS011;4561;47.450;7.516;2022-09-06T02:48:13;6.50;;;2.93;;
9052;SDS011;4561;47.450;7.516;2022-09-06T02:51:36;5.57;;;3.23;;
9052;SDS011;4561;47.450;7.516;2022-09-06T02:54:58;9.27;;;3.50;;
9052;SDS011;4561;47.450;7.516;2022-09-06T02:58:18;10.17;;;3.30;;
9052;SDS011;4561;47.450;7.516;2022-09-06T03:01:39;6.87;;;3.60;;
9052;SDS011;4561;47.450;7.516;2022-09-06T03:04:59;6.53;;;3.80;;
9052;SDS011;4561;47.450;7.516;2022-09-06T03:08:22;8.37;;;3.30;;
9052;SDS011;4561;47.450;7.516;2022-09-06T03:11:45;11.03;;;3.30;;
9052;SDS011;4561;47.450;7.516;2022-09-06T03:15:05;4.27;;;2.80;;
9052;SDS011;4561;47.450;7.516;2022-09-06T03:18:29;9.00;;;3.07;;
9052;SDS011;4561;47.450;7.516;2022-09-06T03:21:50;8.73;;;3.40;;
9052;SDS011;4561;47.450;7.516;2022-09-06T03:25:10;6.10;;;2.70;;
9052;SDS011;4561;47.450;7.516;2022-09-06T03:28:30;8.60;;;2.63;;
9052;SDS011;4561;47.450;7.516;2022-09-06T03:31:51;7.23;;;3.20;;
9052;SDS011;4561;47.450;7.516;2022-09-06T03:35:12;8.73;;;3.17;;
9052;SDS011;4561;47.450;7.516;2022-09-06T03:38:34;8.30;;;3.47;;
9052;SDS011;4561;47.450;7.516;2022-09-06T03:41:55;9.97;;;2.60;;
9052;SDS011;4561;47.450;7.516;2022-09-06T03:45:15;6.77;;;3.07;;
9052;SDS011;4561;47.450;7.516;2022-09-06T03:48:35;5.17;;;2.57;;
9052;SDS011;4561;47.450;7.516;2022-09-06T03:51:56;5.93;;;3.00;;
9052;SDS011;4561;47.450;7.516;2022-09-06T03:55:16;7.70;;;3.10;;
9052;SDS011;4561;47.450;7.516;2022-09-06T03:58:36;5.63;;;2.60;;
9052;SDS011;4561;47.450;7.516;2022-09-06T04:01:57;6.77;;;3.57;;
9052;SDS011;4561;47.450;7.516;2022-09-06T04:05:17;6.10;;;3.43;;
9052;SDS011;4561;47.450;7.516;2022-09-06T04:08:40;8.17;;;2.67;;
9052;SDS011;4561;47.450;7.516;2022-09-06T04:12:00;5.93;;;3.17;;
9052;SDS011;4561;47.450;7.516;2022-09-06T04:15:21;10.83;;;3.80;;
9052;SDS011;4561;47.450;7.516;2022-09-06T04:18:41;8.60;;;3.23;;
9052;SDS011;4561;47.450;7.516;2022-09-06T04:22:01;7.63;;;3.00;;
9052;SDS011;4561;47.450;7.516;2022-09-06T04:25:24;12.13;;;3.00;;
9052;SDS011;4561;47.450;7.516;2022-09-06T04:28:44;8.60;;;2.80;;
9052;SDS011;4561;47.450;7.516;2022-09-06T04:32:05;6.27;;;3.20;;
9052;SDS011;4561;47.450;7.516;2022-09-06T04:35:25;9.53;;;3.27;;
9052;SDS011;4561;47.450;7.516;2022-09-06T04:38:46;8.10;;;3.50;;
9052;SDS011;4561;47.450;7.516;2022-09-06T04:42:11;7.37;;;3.20;;
9052;SDS011;4561;47.450;7.516;2022-09-06T04:45:31;9.10;;;3.37;;
9052;SDS011;4561;47.450;7.516;2022-09-06T04:48:52;5.47;;;3.30;;
9052;SDS011;4561;47.450;7.516;2022-09-06T04:52:13;10.27;;;3.63;;
9052;SDS011;4561;47.450;7.516;2022-09-06T04:55:34;8.20;;;3.50;;
9052;SDS011;4561;47.450;7.516;2022-09-06T04:58:54;9.37;;;3.40;;
9052;SDS011;4561;47.450;7.516;2022-09-06T05:02:17;7.03;;;3.40;;
9052;SDS011;4561;47.450;7.516;2022-09-06T05:05:37;10.07;;;3.73;;
9052;SDS011;4561;47.450;7.516;2022-09-06T05:08:58;6.67;;;3.70;;
9052;SDS011;4561;47.450;7.516;2022-09-06T05:12:21;7.43;;;3.57;;
9052;SDS011;4561;47.450;7.516;2022-09-06T05:15:41;11.20;;;3.50;;
9052;SDS011;4561;47.450;7.516;2022-09-06T05:19:02;8.27;;;3.17;;
9052;SDS011;4561;47.450;7.516;2022-09-06T05:22:22;6.97;;;3.03;;
9052;SDS011;4561;47.450;7.516;2022-09-06T05:25:42;6.50;;;3.10;;
9052;SDS011;4561;47.450;7.516;2022-09-06T05:29:03;7.57;;;3.30;;
9052;SDS011;4561;47.450;7.516;2022-09-06T05:32:23;10.73;;;2.97;;
9052;SDS011;4561;47.450;7.516;2022-09-06T05:35:43;6.97;;;3.00;;
9052;SDS011;4561;47.450;7.516;2022-09-06T05:39:04;6.50;;;3.70;;
9052;SDS011;4561;47.450;7.516;2022-09-06T05:42:24;8.33;;;3.30;;
9052;SDS011;4561;47.450;7.516;2022-09-06T05:45:45;9.03;;;3.07;;
9052;SDS011;4561;47.450;7.516;2022-09-06T05:49:05;9.63;;;3.20;;
9052;SDS011;4561;47.450;7.516;2022-09-06T05:52:27;6.77;;;3.03;;
9052;SDS011;4561;47.450;7.516;2022-09-06T05:55:50;7.33;;;3.63;;
9052;SDS011;4561;47.450;7.516;2022-09-06T05:59:10;8.13;;;3.40;;
9052;SDS011;4561;47.450;7.516;2022-09-06T06:02:30;7.20;;;3.03;;
9052;SDS011;4561;47.450;7.516;2022-09-06T06:05:51;6.83;;;3.33;;
9052;SDS011;4561;47.450;7.516;2022-09-06T06:09:12;4.67;;;3.27;;
9052;SDS011;4561;47.450;7.516;2022-09-06T06:12:32;9.57;;;3.60;;
9052;SDS011;4561;47.450;7.516;2022-09-06T06:15:55;8.10;;;3.30;;
9052;SDS011;4561;47.450;7.516;2022-09-06T06:19:20;5.27;;;3.00;;
9052;SDS011;4561;47.450;7.516;2022-09-06T06:22:43;6.33;;;3.23;;
9052;SDS011;4561;47.450;7.516;2022-09-06T06:26:04;6.57;;;3.40;;
9052;SDS011;4561;47.450;7.516;2022-09-06T06:29:25;5.90;;;3.33;;
9052;SDS011;4561;47.450;7.516;2022-09-06T06:32:45;10.33;;;3.70;;
9052;SDS011;4561;47.450;7.516;2022-09-06T06:36:18;7.33;;;3.00;;
9052;SDS011;4561;47.450;7.516;2022-09-06T06:39:42;9.97;;;3.77;;
9052;SDS011;4561;47.450;7.516;2022-09-06T06:43:02;8.33;;;3.20;;
9052;SDS011;4561;47.450;7.516;2022-09-06T06:46:32;7.77;;;3.67;;
9052;SDS011;4561;47.450;7.516;2022-09-06T06:49:54;6.50;;;3.43;;
9052;SDS011;4561;47.450;7.516;2022-09-06T06:53:14;5.50;;;3.20;;
9052;SDS011;4561;47.450;7.516;2022-09-06T06:56:35;11.57;;;3.83;;
9052;SDS011;4561;47.450;7.516;2022-09-06T06:59:57;11.03;;;4.90;;
9052;SDS011;4561;47.450;7.516;2022-09-06T07:03:18;12.03;;;4.90;;
9052;SDS011;4561;47.450;7.516;2022-09-06T07:06:45;11.53;;;5.27;;
9052;SDS011;4561;47.450;7.516;2022-09-06T07:10:14;12.13;;;5.40;;
9052;SDS011;4561;47.450;7.516;2022-09-06T07:13:37;13.60;;;4.93;;
9052;SDS011;4561;47.450;7.516;2022-09-06T07:16:58;10.30;;;5.33;;
9052;SDS011;4561;47.450;7.516;2022-09-06T07:20:18;10.80;;;5.27;;
9052;SDS011;4561;47.450;7.516;2022-09-06T07:23:44;15.80;;;5.97;;
9052;SDS011;4561;47.450;7.516;2022-09-06T07:27:05;12.60;;;5.03;;
9052;SDS011;4561;47.450;7.516;2022-09-06T07:30:25;13.60;;;4.97;;
9052;SDS011;4561;47.450;7.516;2022-09-06T07:33:55;13.77;;;5.80;;
9052;SDS011;4561;47.450;7.516;2022-09-06T07:37:23;10.43;;;5.23;;
9052;SDS011;4561;47.450;7.516;2022-09-06T07:40:43;10.67;;;5.13;;
9052;SDS011;4561;47.450;7.516;2022-09-06T07:44:12;15.63;;;5.73;;
9052;SDS011;4561;47.450;7.516;2022-09-06T07:47:35;13.70;;;6.27;;
9052;SDS011;4561;47.450;7.516;2022-09-06T07:51:01;12.27;;;5.27;;
9052;SDS011;4561;47.450;7.516;2022-09-06T07:54:29;10.60;;;5.33;;
9052;SDS011;4561;47.450;7.516;2022-09-06T07:57:51;10.60;;;4.20;;
9052;SDS011;4561;47.450;7.516;2022-09-06T08:01:12;12.30;;;4.33;;
9052;SDS011;4561;47.450;7.516;2022-09-06T08:04:37;7.77;;;3.60;;
9052;SDS011;4561;47.450;7.516;2022-09-06T08:08:00;6.23;;;3.67;;
9052;SDS011;4561;47.450;7.516;2022-09-06T08:11:21;12.00;;;4.07;;
9052;SDS011;4561;47.450;7.516;2022-09-06T08:14:42;9.50;;;3.60;;
9052;SDS011;4561;47.450;7.516;2022-09-06T08:18:02;10.50;;;3.50;;
9052;SDS011;4561;47.450;7.516;2022-09-06T08:21:28;9.40;;;3.20;;
9052;SDS011;4561;47.450;7.516;2022-09-06T08:24:52;6.65;;;3.20;;
9052;SDS011;4561;47.450;7.516;2022-09-06T08:28:15;10.90;;;3.30;;
9052;SDS011;4561;47.450;7.516;2022-09-06T08:31:36;9.02;;;3.35;;
9052;SDS011;4561;47.450;7.516;2022-09-06T08:34:59;10.27;;;4.15;;
9052;SDS011;4561;47.450;7.516;2022-09-06T08:38:21;10.43;;;4.10;;
9052;SDS011;4561;47.450;7.516;2022-09-06T08:41:56;10.25;;;3.45;;
9052;SDS011;4561;47.450;7.516;2022-09-06T08:45:21;9.88;;;3.38;;
9052;SDS011;4561;47.450;7.516;2022-09-06T08:48:42;11.15;;;3.78;;
9052;SDS011;4561;47.450;7.516;2022-09-06T08:55:36;12.15;;;3.08;;
9052;SDS011;4561;47.450;7.516;2022-09-06T08:59:04;12.60;;;3.88;;
9052;SDS011;4561;47.450;7.516;2022-09-06T09:02:25;8.23;;;3.53;;
9052;SDS011;4561;47.450;7.516;2022-09-06T09:05:47;7.70;;;3.10;;
9052;SDS011;4561;47.450;7.516;2022-09-06T09:09:12;13.32;;;3.75;;
9052;SDS011;4561;47.450;7.516;2022-09-06T09:12:37;13.55;;;3.40;;
9052;SDS011;4561;47.450;7.516;2022-09-06T09:16:03;8.82;;;3.60;;
9052;SDS011;4561;47.450;7.516;2022-09-06T09:19:24;82.22;;;12.05;;
9052;SDS011;4561;47.450;7.516;2022-09-06T09:22:44;13.60;;;4.05;;
9052;SDS011;4561;47.450;7.516;2022-09-06T09:26:11;11.35;;;3.45;;
9052;SDS011;4561;47.450;7.516;2022-09-06T09:29:54;10.48;;;3.15;;
9052;SDS011;4561;47.450;7.516;2022-09-06T09:33:25;13.00;;;4.13;;
9052;SDS011;4561;47.450;7.516;2022-09-06T09:40:53;11.77;;;3.38;;
9052;SDS011;4561;47.450;7.516;2022-09-06T09:44:20;11.68;;;3.70;;
9052;SDS011;4561;47.450;7.516;2022-09-06T09:47:47;11.02;;;3.00;;
9052;SDS011;4561;47.450;7.516;2022-09-06T09:51:17;9.38;;;2.75;;
9052;SDS011;4561;47.450;7.516;2022-09-06T09:54:43;16.90;;;3.50;;
9052;SDS011;4561;47.450;7.516;2022-09-06T09:58:05;9.02;;;2.90;;
9052;SDS011;4561;47.450;7.516;2022-09-06T10:01:30;10.48;;;3.35;;
9052;SDS011;4561;47.450;7.516;2022-09-06T10:05:00;11.75;;;2.97;;
9052;SDS011;4561;47.450;7.516;2022-09-06T10:08:23;7.93;;;2.78;;
9052;SDS011;4561;47.450;7.516;2022-09-06T10:11:54;10.90;;;2.97;;
9052;SDS011;4561;47.450;7.516;2022-09-06T10:15:34;13.95;;;3.38;;
9052;SDS011;4561;47.450;7.516;2022-09-06T10:18:58;10.23;;;3.38;;
9052;SDS011;4561;47.450;7.516;2022-09-06T10:25:43;12.02;;;3.53;;
9052;SDS011;4561;47.450;7.516;2022-09-06T10:29:05;11.20;;;3.10;;
9052;SDS011;4561;47.450;7.516;2022-09-06T10:35:56;13.63;;;4.10;;
9052;SDS011;4561;47.450;7.516;2022-09-06T10:42:59;11.65;;;3.58;;
9052;SDS011;4561;47.450;7.516;2022-09-06T10:46:24;7.78;;;3.13;;
9052;SDS011;4561;47.450;7.516;2022-09-06T10:49:48;11.38;;;3.42;;
9052;SDS011;4561;47.450;7.516;2022-09-06T10:56:53;9.00;;;3.25;;
9052;SDS011;4561;47.450;7.516;2022-09-06T11:00:24;11.38;;;3.75;;
9052;SDS011;4561;47.450;7.516;2022-09-06T11:03:46;10.30;;;3.75;;
9052;SDS011;4561;47.450;7.516;2022-09-06T11:07:13;12.15;;;3.58;;
9052;SDS011;4561;47.450;7.516;2022-09-06T11:10:40;13.52;;;4.13;;
9052;SDS011;4561;47.450;7.516;2022-09-06T11:14:06;13.20;;;3.58;;
9052;SDS011;4561;47.450;7.516;2022-09-06T11:17:44;11.27;;;3.63;;
9052;SDS011;4561;47.450;7.516;2022-09-06T11:21:22;12.60;;;3.80;;
9052;SDS011;4561;47.450;7.516;2022-09-06T11:25:06;10.73;;;3.87;;
9052;SDS011;4561;47.450;7.516;2022-09-06T11:28:47;13.52;;;4.15;;
9052;SDS011;4561;47.450;7.516;2022-09-06T11:39:38;11.10;;;3.87;;
9052;SDS011;4561;47.450;7.516;2022-09-06T11:49:56;8.47;;;3.33;;
9052;SDS011;4561;47.450;7.516;2022-09-06T11:53:19;7.07;;;2.70;;
9052;SDS011;4561;47.450;7.516;2022-09-06T12:00:42;6.80;;;2.63;;
9052;SDS011;4561;47.450;7.516;2022-09-06T12:04:04;7.30;;;3.07;;
9052;SDS011;4561;47.450;7.516;2022-09-06T12:07:27;4.33;;;2.47;;
9052;SDS011;4561;47.450;7.516;2022-09-06T12:10:56;6.47;;;2.90;;
9052;SDS011;4561;47.450;7.516;2022-09-06T12:14:31;8.13;;;2.60;;
9052;SDS011;4561;47.450;7.516;2022-09-06T12:17:53;5.30;;;2.30;;
9052;SDS011;4561;47.450;7.516;2022-09-06T12:29:01;5.40;;;2.20;;
9052;SDS011;4561;47.450;7.516;2022-09-06T12:32:06;4.87;;;2.50;;
9052;SDS011;4561;47.450;7.516;2022-09-06T12:35:27;6.90;;;2.73;;
9052;SDS011;4561;47.450;7.516;2022-09-06T12:38:57;6.67;;;2.83;;
9052;SDS011;4561;47.450;7.516;2022-09-06T12:42:33;8.10;;;3.10;;
9052;SDS011;4561;47.450;7.516;2022-09-06T12:45:54;6.27;;;2.60;;
9052;SDS011;4561;47.450;7.516;2022-09-06T12:49:16;9.40;;;2.27;;
9052;SDS011;4561;47.450;7.516;2022-09-06T12:56:12;4.87;;;2.37;;
9052;SDS011;4561;47.450;7.516;2022-09-06T12:59:45;6.00;;;2.27;;
9052;SDS011;4561;47.450;7.516;2022-09-06T13:06:54;7.03;;;2.40;;
9052;SDS011;4561;47.450;7.516;2022-09-06T13:10:16;3.17;;;1.80;;
9052;SDS011;4561;47.450;7.516;2022-09-06T13:13:43;5.57;;;2.10;;
9052;SDS011;4561;47.450;7.516;2022-09-06T13:17:07;3.67;;;1.87;;
9052;SDS011;4561;47.450;7.516;2022-09-06T13:20:43;3.63;;;1.03;;
9052;SDS011;4561;47.450;7.516;2022-09-06T13:24:16;1.73;;;0.90;;
9052;SDS011;4561;47.450;7.516;2022-09-06T13:27:49;5.67;;;2.07;;
9052;SDS011;4561;47.450;7.516;2022-09-06T13:34:39;3.43;;;1.70;;
9052;SDS011;4561;47.450;7.516;2022-09-06T13:38:18;2.50;;;1.60;;
9052;SDS011;4561;47.450;7.516;2022-09-06T13:42:43;2.87;;;1.47;;
9052;SDS011;4561;47.450;7.516;2022-09-06T13:46:03;3.80;;;1.97;;
9052;SDS011;4561;47.450;7.516;2022-09-06T13:49:24;7.80;;;1.63;;
9052;SDS011;4561;47.450;7.516;2022-09-06T13:52:45;7.73;;;1.90;;
9052;SDS011;4561;47.450;7.516;2022-09-06T13:56:05;5.97;;;2.00;;
9052;SDS011;4561;47.450;7.516;2022-09-06T13:59:27;5.63;;;2.10;;
9052;SDS011;4561;47.450;7.516;2022-09-06T14:02:48;6.43;;;2.10;;
9052;SDS011;4561;47.450;7.516;2022-09-06T14:06:10;1.77;;;1.60;;
9052;SDS011;4561;47.450;7.516;2022-09-06T14:09:31;6.03;;;1.47;;
9052;SDS011;4561;47.450;7.516;2022-09-06T14:12:52;4.50;;;1.40;;
9052;SDS011;4561;47.450;7.516;2022-09-06T14:16:12;8.13;;;1.70;;
9052;SDS011;4561;47.450;7.516;2022-09-06T14:19:33;6.03;;;2.30;;
9052;SDS011;4561;47.450;7.516;2022-09-06T14:22:53;4.30;;;2.13;;
9052;SDS011;4561;47.450;7.516;2022-09-06T14:26:14;5.70;;;2.37;;
9052;SDS011;4561;47.450;7.516;2022-09-06T14:29:35;4.03;;;2.50;;
9052;SDS011;4561;47.450;7.516;2022-09-06T14:32:56;4.30;;;2.60;;
9052;SDS011;4561;47.450;7.516;2022-09-06T14:36:19;4.10;;;2.67;;
9052;SDS011;4561;47.450;7.516;2022-09-06T14:39:40;4.27;;;1.80;;
9052;SDS011;4561;47.450;7.516;2022-09-06T14:43:01;4.90;;;1.60;;
9052;SDS011;4561;47.450;7.516;2022-09-06T14:46:24;6.07;;;2.03;;
9052;SDS011;4561;47.450;7.516;2022-09-06T14:49:46;4.30;;;1.83;;
9052;SDS011;4561;47.450;7.516;2022-09-06T14:53:07;3.00;;;1.83;;
9052;SDS011;4561;47.450;7.516;2022-09-06T14:56:27;5.90;;;1.80;;
9052;SDS011;4561;47.450;7.516;2022-09-06T14:59:49;4.70;;;1.80;;
9052;SDS011;4561;47.450;7.516;2022-09-06T15:03:09;5.37;;;1.70;;
9052;SDS011;4561;47.450;7.516;2022-09-06T15:06:30;3.60;;;1.67;;
9052;SDS011;4561;47.450;7.516;2022-09-06T15:09:52;5.87;;;2.30;;
9052;SDS011;4561;47.450;7.516;2022-09-06T15:13:12;6.13;;;2.20;;
9052;SDS011;4561;47.450;7.516;2022-09-06T15:16:33;5.97;;;2.20;;
9052;SDS011;4561;47.450;7.516;2022-09-06T15:19:55;3.40;;;2.50;;
9052;SDS011;4561;47.450;7.516;2022-09-06T15:23:15;5.73;;;2.40;;
9052;SDS011;4561;47.450;7.516;2022-09-06T15:26:35;4.30;;;2.73;;
9052;SDS011;4561;47.450;7.516;2022-09-06T15:29:59;6.60;;;2.30;;
9052;SDS011;4561;47.450;7.516;2022-09-06T15:33:21;5.10;;;2.43;;
9052;SDS011;4561;47.450;7.516;2022-09-06T15:36:42;6.23;;;1.90;;
9052;SDS011;4561;47.450;7.516;2022-09-06T15:40:07;4.57;;;2.03;;
9052;SDS011;4561;47.450;7.516;2022-09-06T15:43:30;5.03;;;2.20;;
9052;SDS011;4561;47.450;7.516;2022-09-06T15:46:52;8.63;;;2.37;;
9052;SDS011;4561;47.450;7.516;2022-09-06T15:50:14;6.70;;;2.40;;
9052;SDS011;4561;47.450;7.516;2022-09-06T15:53:34;6.43;;;3.10;;
9052;SDS011;4561;47.450;7.516;2022-09-06T15:56:55;7.57;;;2.07;;
9052;SDS011;4561;47.450;7.516;2022-09-06T16:00:17;4.17;;;1.67;;
9052;SDS011;4561;47.450;7.516;2022-09-06T16:03:41;3.43;;;2.10;;
9052;SDS011;4561;47.450;7.516;2022-09-06T16:07:04;5.80;;;2.30;;
9052;SDS011;4561;47.450;7.516;2022-09-06T16:10:24;3.87;;;2.20;;
9052;SDS011;4561;47.450;7.516;2022-09-06T16:13:45;7.03;;;2.10;;
9052;SDS011;4561;47.450;7.516;2022-09-06T16:17:05;5.47;;;2.30;;
9052;SDS011;4561;47.450;7.516;2022-09-06T16:20:26;3.47;;;1.93;;
9052;SDS011;4561;47.450;7.516;2022-09-06T16:23:50;6.90;;;1.90;;
9052;SDS011;4561;47.450;7.516;2022-09-06T16:27:14;3.20;;;1.60;;
9052;SDS011;4561;47.450;7.516;2022-09-06T16:30:39;5.20;;;1.97;;
9052;SDS011;4561;47.450;7.516;2022-09-06T16:34:00;4.60;;;1.60;;
9052;SDS011;4561;47.450;7.516;2022-09-06T16:37:20;3.77;;;1.60;;
9052;SDS011;4561;47.450;7.516;2022-09-06T16:40:43;5.23;;;1.50;;
9052;SDS011;4561;47.450;7.516;2022-09-06T16:44:04;5.20;;;1.20;;
9052;SDS011;4561;47.450;7.516;2022-09-06T16:47:28;5.33;;;1.50;;
9052;SDS011;4561;47.450;7.516;2022-09-06T16:50:50;2.53;;;1.30;;
9052;SDS011;4561;47.450;7.516;2022-09-06T16:54:11;5.10;;;1.40;;
9052;SDS011;4561;47.450;7.516;2022-09-06T16:57:32;5.00;;;1.47;;
9052;SDS011;4561;47.450;7.516;2022-09-06T17:00:53;8.60;;;1.57;;
9052;SDS011;4561;47.450;7.516;2022-09-06T17:04:13;7.63;;;1.63;;
9052;SDS011;4561;47.450;7.516;2022-09-06T17:07:34;4.80;;;1.53;;
9052;SDS011;4561;47.450;7.516;2022-09-06T17:10:54;4.03;;;1.47;;
9052;SDS011;4561;47.450;7.516;2022-09-06T17:14:42;5.30;;;1.53;;
9052;SDS011;4561;47.450;7.516;2022-09-06T17:18:03;3.70;;;1.37;;
9052;SDS011;4561;47.450;7.516;2022-09-06T17:21:27;6.23;;;1.30;;
9052;SDS011;4561;47.450;7.516;2022-09-06T17:24:48;3.73;;;1.20;;
9052;SDS011;4561;47.450;7.516;2022-09-06T17:28:08;4.53;;;1.20;;
9052;SDS011;4561;47.450;7.516;2022-09-06T17:31:29;4.67;;;1.20;;
9052;SDS011;4561;47.450;7.516;2022-09-06T17:34:50;3.70;;;1.10;;
9052;SDS011;4561;47.450;7.516;2022-09-06T17:38:10;3.77;;;1.13;;
9052;SDS011;4561;47.450;7.516;2022-09-06T17:41:36;4.73;;;1.43;;
9052;SDS011;4561;47.450;7.516;2022-09-06T17:44:58;2.27;;;1.10;;
9052;SDS011;4561;47.450;7.516;2022-09-06T17:48:18;3.43;;;1.50;;
9052;SDS011;4561;47.450;7.516;2022-09-06T17:51:44;4.17;;;1.33;;
9052;SDS011;4561;47.450;7.516;2022-09-06T17:55:05;6.43;;;1.30;;
9052;SDS011;4561;47.450;7.516;2022-09-06T17:58:25;5.40;;;1.23;;
9052;SDS011;4561;47.450;7.516;2022-09-06T18:01:46;4.33;;;1.30;;
9052;SDS011;4561;47.450;7.516;2022-09-06T18:05:06;4.13;;;1.50;;
9052;SDS011;4561;47.450;7.516;2022-09-06T18:08:27;5.57;;;1.40;;
9052;SDS011;4561;47.450;7.516;2022-09-06T18:11:47;5.77;;;1.37;;
9052;SDS011;4561;47.450;7.516;2022-09-06T18:15:08;4.33;;;1.23;;
9052;SDS011;4561;47.450;7.516;2022-09-06T18:18:32;3.90;;;1.40;;
9052;SDS011;4561;47.450;7.516;2022-09-06T18:21:53;4.50;;;1.23;;
9052;SDS011;4561;47.450;7.516;2022-09-06T18:25:14;9.80;;;1.40;;
9052;SDS011;4561;47.450;7.516;2022-09-06T18:28:35;5.37;;;1.23;;
9052;SDS011;4561;47.450;7.516;2022-09-06T18:31:58;5.17;;;1.53;;
9052;SDS011;4561;47.450;7.516;2022-09-06T18:35:18;4.10;;;1.13;;
9052;SDS011;4561;47.450;7.516;2022-09-06T18:38:39;7.00;;;1.47;;
9052;SDS011;4561;47.450;7.516;2022-09-06T18:41:59;4.70;;;1.40;;
9052;SDS011;4561;47.450;7.516;2022-09-06T18:45:22;4.97;;;1.47;;
9052;SDS011;4561;47.450;7.516;2022-09-06T18:48:45;2.03;;;0.90;;
9052;SDS011;4561;47.450;7.516;2022-09-06T18:52:07;4.23;;;1.20;;
9052;SDS011;4561;47.450;7.516;2022-09-06T18:55:27;3.33;;;1.50;;
9052;SDS011;4561;47.450;7.516;2022-09-06T18:58:48;6.60;;;1.27;;
9052;SDS011;4561;47.450;7.516;2022-09-06T19:02:12;8.43;;;1.43;;
9052;SDS011;4561;47.450;7.516;2022-09-06T19:05:35;5.60;;;1.37;;
9052;SDS011;4561;47.450;7.516;2022-09-06T19:09:01;2.20;;;1.10;;
9052;SDS011;4561;47.450;7.516;2022-09-06T19:12:29;5.00;;;1.10;;
9052;SDS011;4561;47.450;7.516;2022-09-06T19:15:51;6.00;;;1.30;;
9052;SDS011;4561;47.450;7.516;2022-09-06T19:19:12;3.63;;;1.13;;
9052;SDS011;4561;47.450;7.516;2022-09-06T19:22:35;4.53;;;1.10;;
9052;SDS011;4561;47.450;7.516;2022-09-06T19:26:06;2.73;;;1.10;;
9052;SDS011;4561;47.450;7.516;2022-09-06T19:29:32;7.83;;;1.80;;
9052;SDS011;4561;47.450;7.516;2022-09-06T19:32:52;4.33;;;1.13;;
9052;SDS011;4561;47.450;7.516;2022-09-06T19:36:13;5.83;;;1.37;;
9052;SDS011;4561;47.450;7.516;2022-09-06T19:39:36;6.23;;;1.67;;
9052;SDS011;4561;47.450;7.516;2022-09-06T19:42:57;4.03;;;1.27;;
9052;SDS011;4561;47.450;7.516;2022-09-06T19:46:17;4.30;;;1.53;;
9052;SDS011;4561;47.450;7.516;2022-09-06T19:49:38;6.63;;;1.30;;
9052;SDS011;4561;47.450;7.516;2022-09-06T19:52:59;4.23;;;1.67;;
9052;SDS011;4561;47.450;7.516;2022-09-06T19:56:23;4.20;;;1.20;;
9052;SDS011;4561;47.450;7.516;2022-09-06T19:59:45;3.37;;;1.30;;
9052;SDS011;4561;47.450;7.516;2022-09-06T20:03:05;4.37;;;1.47;;
9052;SDS011;4561;47.450;7.516;2022-09-06T20:06:26;6.30;;;1.50;;
9052;SDS011;4561;47.450;7.516;2022-09-06T20:09:46;4.23;;;1.47;;
9052;SDS011;4561;47.450;7.516;2022-09-06T20:13:09;5.67;;;1.53;;
9052;SDS011;4561;47.450;7.516;2022-09-06T20:16:29;4.13;;;1.77;;
9052;SDS011;4561;47.450;7.516;2022-09-06T20:19:50;3.10;;;1.23;;
9052;SDS011;4561;47.450;7.516;2022-09-06T20:23:12;5.80;;;1.60;;
9052;SDS011;4561;47.450;7.516;2022-09-06T20:26:33;1.80;;;1.10;;
9052;SDS011;4561;47.450;7.516;2022-09-06T20:29:54;4.73;;;2.10;;
9052;SDS011;4561;47.450;7.516;2022-09-06T20:33:14;7.57;;;2.10;;
9052;SDS011;4561;47.450;7.516;2022-09-06T20:36:36;4.13;;;1.67;;
9052;SDS011;4561;47.450;7.516;2022-09-06T20:40:01;4.03;;;1.37;;
9052;SDS011;4561;47.450;7.516;2022-09-06T20:43:23;3.57;;;1.57;;
9052;SDS011;4561;47.450;7.516;2022-09-06T20:46:44;3.80;;;1.57;;
9052;SDS011;4561;47.450;7.516;2022-09-06T20:50:05;4.53;;;1.73;;
9052;SDS011;4561;47.450;7.516;2022-09-06T20:53:27;5.50;;;1.90;;
9052;SDS011;4561;47.450;7.516;2022-09-06T20:56:50;5.57;;;1.60;;
9052;SDS011;4561;47.450;7.516;2022-09-06T21:00:13;3.43;;;1.37;;
9052;SDS011;4561;47.450;7.516;2022-09-06T21:03:37;3.87;;;1.90;;
9052;SDS011;4561;47.450;7.516;2022-09-06T21:07:00;3.73;;;2.67;;
9052;SDS011;4561;47.450;7.516;2022-09-06T21:10:24;4.10;;;2.17;;
9052;SDS011;4561;47.450;7.516;2022-09-06T21:13:54;5.20;;;2.40;;
9052;SDS011;4561;47.450;7.516;2022-09-06T21:17:15;5.07;;;2.13;;
9052;SDS011;4561;47.450;7.516;2022-09-06T21:20:35;3.83;;;2.30;;
9052;SDS011;4561;47.450;7.516;2022-09-06T21:23:56;6.80;;;3.03;;
9052;SDS011;4561;47.450;7.516;2022-09-06T21:27:16;5.83;;;2.37;;
9052;SDS011;4561;47.450;7.516;2022-09-06T21:30:37;4.37;;;1.87;;
9052;SDS011;4561;47.450;7.516;2022-09-06T21:33:59;5.73;;;2.00;;
9052;SDS011;4561;47.450;7.516;2022-09-06T21:37:22;6.37;;;2.13;;
9052;SDS011;4561;47.450;7.516;2022-09-06T21:40:42;3.93;;;1.80;;
9052;SDS011;4561;47.450;7.516;2022-09-06T21:44:05;7.50;;;2.10;;
9052;SDS011;4561;47.450;7.516;2022-09-06T21:47:27;2.70;;;1.43;;
9052;SDS011;4561;47.450;7.516;2022-09-06T21:50:49;5.70;;;1.70;;
9052;SDS011;4561;47.450;7.516;2022-09-06T21:54:12;5.80;;;1.50;;
9052;SDS011;4561;47.450;7.516;2022-09-06T21:57:33;6.90;;;1.70;;
9052;SDS011;4561;47.450;7.516;2022-09-06T22:00:54;5.47;;;1.63;;
9052;SDS011;4561;47.450;7.516;2022-09-06T22:04:18;8.27;;;1.50;;
9052;SDS011;4561;47.450;7.516;2022-09-06T22:07:38;2.50;;;1.33;;
9052;SDS011;4561;47.450;7.516;2022-09-06T22:11:06;3.03;;;1.43;;
9052;SDS011;4561;47.450;7.516;2022-09-06T22:14:30;5.63;;;1.73;;
9052;SDS011;4561;47.450;7.516;2022-09-06T22:17:50;4.50;;;1.90;;
9052;SDS011;4561;47.450;7.516;2022-09-06T22:21:11;2.57;;;1.50;;
9052;SDS011;4561;47.450;7.516;2022-09-06T22:24:37;5.50;;;1.50;;
9052;SDS011;4561;47.450;7.516;2022-09-06T22:28:00;7.70;;;1.83;;
9052;SDS011;4561;47.450;7.516;2022-09-06T22:31:20;6.00;;;1.70;;